Caldera, Chile
Current Conditions -  °F | °C
As of 3:00 AM on Tuesday 21 Oct 2014 (Local Time) from SCAT Reporting Station
NA  
Wind Chill: 55°   Ceiling: NA
Heat Index: 55°   Visibility: 6mi
Dew Point: 52°   Wind: 16mph
Humidity: 88%   Direction: 320°NW
Pressure: 29.97"   Gusts: NA
Location:  27.08°S, 70.81°W
Report Text: SCAT 210700Z AUTO 32014KT 9999 // ///009 13/11 Q1015
Loading
Personal Weather Stations






























Interactive Weather Map
Tropical Storm Tracking
New forecast layout! Learn more

10-Day Weather Forecast

Advertisements
Track Severe Weather on mobile